San Francisco, California
Traffic Map
Current Weather Conditions
San Francisco, California
Clear
Clear
61°
Feels Like: 61°
Wind Chill: 61° Ceiling: Unl
Heat Index: 61° Visibility: 10mi
Dew Point: 56° Wind: 3mph
Humidity: 83% Direction: 200° (SSW)
Pressure: 29.95in Gusts: 0mph
Raw Report DataKSFO 241256Z 20003KT 10SM CLR 16/13 A2995 RMK AO2 SLP143 T01610133 $
Traffic Incident Summary
Active as of:
Severity:
Category:
InformationThere was an issue retrieving the traffic information for this location. Please try a different location or try again shortly.
Advertisements
Track Severe Weather on mobile